Time;durP1;ratioP1;P1;durP2;ratioP2;P2;SDS_P1;SDS_P2;PMS_P1;PMS_P2;Temp;Humidity;BMP_temperature;BMP_pressure;BME280_temperature;BME280_humidity;BME280_pressure;Samples;Min_cycle;Max_cycle;Signal;HPM_P1;HPM_P2
2022/03/06 00:00:22;;;;;;;0.75;0.75;;;0.30;99.90;;;;;;5247588;28;20573;-76
2022/03/06 00:02:56;;;;;;;2.08;1.88;;;0.30;99.90;;;;;;5248693;28;20051;-77
2022/03/06 00:05:27;;;;;;;0.50;0.50;;;0.20;99.90;;;;;;5236406;28;20040;-79
2022/03/06 00:07:59;;;;;;;0.50;0.50;;;0.20;99.90;;;;;;5234112;28;20031;-79
2022/03/06 00:10:36;;;;;;;0.75;0.75;;;0.20;99.90;;;;;;5246621;28;20040;-77
2022/03/06 00:13:08;;;;;;;0.70;0.70;;;0.30;99.90;;;;;;5262197;28;20024;-79
2022/03/06 00:15:45;;;;;;;0.63;0.63;;;0.30;99.90;;;;;;5255818;28;20500;-79
2022/03/06 00:18:17;;;;;;;0.60;0.60;;;0.30;99.90;;;;;;5243927;28;20038;-80
2022/03/06 00:20:49;;;;;;;0.40;0.40;;;0.30;99.90;;;;;;5238319;28;20080;-78
2022/03/06 00:23:23;;;;;;;1.38;1.38;;;0.20;99.90;;;;;;5234171;28;20024;-78
2022/03/06 00:25:57;;;;;;;0.70;0.70;;;0.10;99.90;;;;;;5253114;28;20058;-78
2022/03/06 00:28:31;;;;;;;;;;;0.00;99.90;;;;;;5231992;28;20047;-79
2022/03/06 00:31:07;;;;;;;1.85;1.30;;;-0.10;99.90;;;;;;5263258;28;19916;-79
2022/03/06 00:33:39;;;;;;;0.60;0.60;;;-0.10;99.90;;;;;;5230613;28;20625;-77
2022/03/06 00:36:13;;;;;;;0.43;0.43;;;-0.10;99.90;;;;;;5237369;28;20036;-77
2022/03/06 00:38:45;;;;;;;0.88;0.88;;;-0.20;99.90;;;;;;5257455;28;20313;-78
2022/03/06 00:41:20;;;;;;;0.43;0.43;;;-0.20;99.90;;;;;;5246551;28;20036;-79
2022/03/06 00:43:51;;;;;;;1.37;1.37;;;-0.20;99.90;;;;;;5216173;28;20046;-78
2022/03/06 00:46:26;;;;;;;0.75;0.75;;;-0.30;99.90;;;;;;5255803;28;20032;-78
2022/03/06 00:48:57;;;;;;;0.45;0.45;;;-0.40;99.90;;;;;;5263802;28;20257;-78
2022/03/06 00:51:31;;;;;;;0.40;0.40;;;-0.50;99.90;;;;;;5246327;28;20583;-78
2022/03/06 00:54:05;;;;;;;0.50;0.50;;;-0.50;99.90;;;;;;5242321;28;20511;-78
2022/03/06 00:56:36;;;;;;;0.50;0.50;;;-0.40;99.90;;;;;;5251509;28;20227;-81
2022/03/06 00:59:11;;;;;;;0.50;0.50;;;-0.50;99.90;;;;;;5241891;28;20560;-78
2022/03/06 01:01:44;;;;;;;1.23;1.23;;;-0.50;99.90;;;;;;5253488;28;20039;-77
2022/03/06 01:04:22;;;;;;;2.00;1.35;;;-0.60;99.90;;;;;;5235436;28;20043;-80
2022/03/06 01:06:56;;;;;;;0.50;0.50;;;-0.60;99.90;;;;;;5228281;28;20063;-79
2022/03/06 01:09:35;;;;;;;0.52;0.52;;;-0.60;99.90;;;;;;5249491;28;20052;-81
2022/03/06 01:12:14;;;;;;;0.53;0.53;;;-0.60;99.90;;;;;;5212889;28;20040;-78
2022/03/06 01:14:45;;;;;;;1.48;1.27;;;-0.60;99.90;;;;;;5268066;28;20036;-77
2022/03/06 01:17:18;;;;;;;1.52;1.42;;;-0.60;99.90;;;;;;5255535;28;20313;-77
2022/03/06 01:19:52;;;;;;;0.40;0.40;;;-0.50;99.90;;;;;;5230231;28;20584;-77
2022/03/06 01:22:23;;;;;;;0.50;0.50;;;-0.50;99.90;;;;;;5231756;28;20333;-77
2022/03/06 01:24:55;;;;;;;0.45;0.45;;;-0.50;99.90;;;;;;5243677;28;20044;-76
2022/03/06 01:27:29;;;;;;;0.95;0.95;;;-0.60;99.90;;;;;;5246683;28;20051;-77
2022/03/06 01:30:01;;;;;;;1.77;1.67;;;-0.50;99.90;;;;;;5254414;28;20049;-78
2022/03/06 01:32:34;;;;;;;0.70;0.70;;;-0.60;99.90;;;;;;5239813;28;20038;-79
2022/03/06 01:35:06;;;;;;;1.13;1.13;;;-0.50;99.90;;;;;;5237619;28;20329;-78
2022/03/06 01:37:39;;;;;;;0.60;0.60;;;-0.50;99.90;;;;;;5257609;28;21285;-76
2022/03/06 01:40:13;;;;;;;;;;;-0.50;99.90;;;;;;5230659;28;20036;-77
2022/03/06 01:42:48;;;;;;;0.60;0.60;;;-0.50;99.90;;;;;;5243015;28;19920;-77
2022/03/06 01:45:28;;;;;;;0.90;0.90;;;-0.50;99.90;;;;;;5227842;28;20044;-77
2022/03/06 01:48:08;;;;;;;0.60;0.60;;;-0.50;99.90;;;;;;5247215;28;20562;-77
2022/03/06 01:50:44;;;;;;;0.50;0.50;;;-0.50;99.90;;;;;;5249355;28;20035;-77
2022/03/06 01:53:20;;;;;;;0.93;0.93;;;-0.40;99.90;;;;;;5222328;28;20060;-77
2022/03/06 01:55:54;;;;;;;0.77;0.77;;;-0.50;99.90;;;;;;5229215;28;20050;-77
2022/03/06 01:58:29;;;;;;;0.45;0.45;;;-0.50;99.90;;;;;;5264695;28;20028;-77
2022/03/06 02:01:10;;;;;;;0.60;0.60;;;-0.60;99.90;;;;;;5226374;28;20054;-77
2022/03/06 02:03:44;;;;;;;0.95;0.95;;;-0.60;99.90;;;;;;5250461;28;20261;-76
2022/03/06 02:06:21;;;;;;;1.23;1.23;;;-0.60;99.90;;;;;;5197108;28;20062;-76
2022/03/06 02:08:58;;;;;;;0.50;0.50;;;-0.60;99.90;;;;;;5264291;28;20532;-76
2022/03/06 02:11:30;;;;;;;0.73;0.73;;;-0.60;99.90;;;;;;5230701;28;20497;-77
2022/03/06 02:14:07;;;;;;;0.60;0.60;;;-0.50;99.90;;;;;;5249021;28;20946;-76
2022/03/06 02:16:49;;;;;;;0.70;0.70;;;-0.60;99.90;;;;;;5251005;28;20036;-78
2022/03/06 02:19:20;;;;;;;0.53;0.53;;;-0.50;99.90;;;;;;5228407;28;20050;-76
2022/03/06 02:21:54;;;;;;;0.70;0.70;;;-0.50;99.90;;;;;;5253447;28;20020;-77
2022/03/06 02:24:39;;;;;;;0.40;0.40;;;-0.50;99.90;;;;;;5249702;28;20213;-77
2022/03/06 02:27:17;;;;;;;0.60;0.60;;;-0.50;99.90;;;;;;5251182;28;20039;-78
2022/03/06 02:29:52;;;;;;;0.53;0.53;;;-0.50;99.90;;;;;;5225711;28;20565;-77
2022/03/06 02:32:26;;;;;;;0.90;0.90;;;-0.50;99.90;;;;;;5236687;28;20054;-76
2022/03/06 02:34:59;;;;;;;1.33;1.33;;;-0.60;99.90;;;;;;5239777;28;20047;-77
2022/03/06 02:37:33;;;;;;;0.57;0.57;;;-0.60;99.90;;;;;;5239229;28;20051;-76
2022/03/06 02:40:10;;;;;;;1.10;1.10;;;-0.50;99.90;;;;;;5224435;28;20048;-77
2022/03/06 02:42:53;;;;;;;0.30;0.30;;;-0.50;99.90;;;;;;5244380;28;20542;-76
2022/03/06 02:45:28;;;;;;;1.45;1.45;;;-0.50;99.90;;;;;;5254127;28;20020;-77
2022/03/06 02:48:03;;;;;;;0.50;0.50;;;-0.60;99.90;;;;;;5249741;28;20038;-79
2022/03/06 02:50:41;;;;;;;0.50;0.50;;;-0.60;99.90;;;;;;5229525;28;20041;-77
2022/03/06 02:53:13;;;;;;;2.63;1.33;;;-0.60;99.90;;;;;;5229133;28;20032;-77
2022/03/06 02:55:44;;;;;;;2.03;1.95;;;-0.60;99.90;;;;;;5227957;28;20050;-78
2022/03/06 02:58:19;;;;;;;0.90;0.90;;;-0.60;99.90;;;;;;5244859;28;20044;-77
2022/03/06 03:00:52;;;;;;;0.68;0.68;;;-0.70;99.90;;;;;;5234756;28;20040;-78
2022/03/06 03:03:26;;;;;;;0.80;0.80;;;-0.70;99.90;;;;;;5259432;28;20034;-77
2022/03/06 03:05:57;;;;;;;0.80;0.80;;;-0.70;99.90;;;;;;5217761;28;20059;-78
2022/03/06 03:08:29;;;;;;;0.47;0.47;;;-0.70;99.90;;;;;;5244510;28;20032;-77
2022/03/06 03:11:00;;;;;;;0.93;0.93;;;-0.80;99.90;;;;;;5228549;28;20046;-77
2022/03/06 03:13:31;;;;;;;1.77;1.67;;;-0.80;99.90;;;;;;5246170;28;20040;-76
2022/03/06 03:16:06;;;;;;;1.37;1.30;;;-0.70;99.90;;;;;;5233208;28;20036;-77
2022/03/06 03:18:42;;;;;;;0.40;0.40;;;-0.60;99.90;;;;;;5259186;28;20455;-77
2022/03/06 03:21:14;;;;;;;0.87;0.87;;;-0.60;99.90;;;;;;5244333;28;20040;-76
2022/03/06 03:23:48;;;;;;;0.50;0.50;;;-0.70;99.90;;;;;;5252169;28;20032;-77
2022/03/06 03:26:23;;;;;;;;;;;-0.70;99.90;;;;;;5261900;28;20042;-77
2022/03/06 03:28:54;;;;;;;1.10;1.10;;;-0.80;99.90;;;;;;5243476;28;20345;-79
2022/03/06 03:31:31;;;;;;;1.13;1.13;;;-0.70;99.90;;;;;;5235061;28;20039;-77
2022/03/06 03:34:04;;;;;;;0.50;0.50;;;-0.70;99.90;;;;;;5254643;28;20045;-77
2022/03/06 03:36:40;;;;;;;1.17;1.17;;;-0.70;99.90;;;;;;5253654;28;20078;-78
2022/03/06 03:39:12;;;;;;;0.70;0.70;;;-0.60;99.90;;;;;;5243177;28;20043;-76
2022/03/06 03:41:46;;;;;;;0.40;0.40;;;-0.60;99.90;;;;;;5258503;28;20036;-76
2022/03/06 03:44:20;;;;;;;0.35;0.35;;;-0.70;99.90;;;;;;5230662;28;20023;-76
2022/03/06 03:46:52;;;;;;;0.50;0.50;;;-0.70;99.90;;;;;;5270061;28;20447;-75
2022/03/06 03:49:23;;;;;;;0.63;0.63;;;-0.70;99.90;;;;;;5247173;28;20042;-76
2022/03/06 03:51:58;;;;;;;0.63;0.63;;;-0.60;99.90;;;;;;5218170;28;20042;-76
2022/03/06 03:54:32;;;;;;;;;;;-0.60;99.90;;;;;;5228113;28;20036;-75
2022/03/06 03:57:06;;;;;;;0.30;0.30;;;-0.60;99.90;;;;;;5243482;28;19920;-77
2022/03/06 03:59:40;;;;;;;0.70;0.70;;;-0.60;99.90;;;;;;5256778;28;20580;-78
2022/03/06 04:02:21;;;;;;;0.43;0.43;;;-0.70;99.90;;;;;;5230668;28;20095;-76
2022/03/06 04:04:53;;;;;;;0.80;0.80;;;-0.70;99.90;;;;;;5211854;28;20245;-75
2022/03/06 04:07:30;;;;;;;0.60;0.60;;;-0.70;99.90;;;;;;5244327;28;20039;-76
2022/03/06 04:10:03;;;;;;;0.50;0.50;;;-0.70;99.90;;;;;;5251867;28;20348;-76
2022/03/06 04:12:40;;;;;;;0.63;0.63;;;-0.70;99.90;;;;;;5244196;28;20350;-76
2022/03/06 04:15:14;;;;;;;0.47;0.47;;;-0.70;99.90;;;;;;5248633;28;20032;-78
2022/03/06 04:17:46;;;;;;;0.60;0.60;;;-0.70;99.90;;;;;;5223745;28;20482;-77
2022/03/06 04:20:23;;;;;;;0.50;0.50;;;-0.70;99.90;;;;;;5258928;28;20048;-77
2022/03/06 04:22:58;;;;;;;0.47;0.47;;;-0.70;99.90;;;;;;5236239;28;20024;-76
2022/03/06 04:25:34;;;;;;;0.60;0.60;;;-0.70;99.90;;;;;;5246985;28;20466;-79
2022/03/06 04:28:08;;;;;;;0.93;0.93;;;-0.70;99.90;;;;;;5229330;28;20043;-76
2022/03/06 04:30:45;;;;;;;1.35;1.35;;;-0.60;99.90;;;;;;5260977;28;20039;-77
2022/03/06 04:33:18;;;;;;;0.50;0.50;;;-0.60;99.90;;;;;;5251494;28;20024;-77
2022/03/06 04:35:54;;;;;;;0.85;0.85;;;-0.60;99.90;;;;;;5264020;28;20035;-76
2022/03/06 04:38:36;;;;;;;0.63;0.63;;;-0.60;99.90;;;;;;5264787;28;20058;-76
2022/03/06 04:41:08;;;;;;;1.00;1.00;;;-0.60;99.90;;;;;;5240380;28;20044;-77
2022/03/06 04:43:45;;;;;;;0.50;0.50;;;-0.60;99.90;;;;;;5249052;28;20044;-77
2022/03/06 04:46:19;;;;;;;0.43;0.43;;;-0.50;99.90;;;;;;5234456;28;20036;-77
2022/03/06 04:48:54;;;;;;;1.40;1.40;;;-0.50;99.90;;;;;;5244885;28;20036;-77
2022/03/06 04:51:25;;;;;;;0.50;0.50;;;-0.60;99.90;;;;;;5258273;28;20129;-75
2022/03/06 04:53:57;;;;;;;0.43;0.43;;;-0.60;99.90;;;;;;5262006;28;20028;-76
2022/03/06 04:56:32;;;;;;;0.50;0.50;;;-0.60;99.90;;;;;;5258508;28;20067;-73
2022/03/06 04:59:03;;;;;;;1.65;1.55;;;-0.60;99.90;;;;;;5242817;28;20052;-74
2022/03/06 05:01:39;;;;;;;0.50;0.50;;;-0.60;99.90;;;;;;5229758;28;20032;-75
2022/03/06 05:04:13;;;;;;;1.10;1.10;;;-0.60;99.90;;;;;;5222355;28;20050;-77
2022/03/06 05:06:47;;;;;;;;;;;-0.60;99.90;;;;;;5229841;28;20051;-76
2022/03/06 05:09:26;;;;;;;0.70;0.70;;;-0.60;99.90;;;;;;5260027;28;19920;-76
2022/03/06 05:11:57;;;;;;;0.50;0.50;;;-0.60;99.90;;;;;;5243175;28;20047;-76
2022/03/06 05:14:31;;;;;;;0.50;0.50;;;-0.70;99.90;;;;;;5245099;28;20040;-76
2022/03/06 05:17:10;;;;;;;0.43;0.43;;;-0.70;99.90;;;;;;5232860;28;20377;-78
2022/03/06 05:19:41;;;;;;;0.40;0.40;;;-0.80;99.90;;;;;;5241707;28;20039;-77
2022/03/06 05:22:13;;;;;;;0.50;0.50;;;-0.90;99.90;;;;;;5214755;28;20062;-75
2022/03/06 05:24:45;;;;;;;0.77;0.77;;;-0.90;99.90;;;;;;5230174;28;20047;-75
2022/03/06 05:27:20;;;;;;;0.50;0.50;;;-1.00;99.90;;;;;;5260152;28;20494;-75
2022/03/06 05:29:57;;;;;;;0.40;0.40;;;-1.00;99.90;;;;;;5243048;28;20041;-74
2022/03/06 05:32:29;;;;;;;0.57;0.57;;;-1.00;99.90;;;;;;5241131;28;20565;-75
2022/03/06 05:35:05;;;;;;;0.50;0.50;;;-1.00;99.90;;;;;;5252793;28;20051;-74
2022/03/06 05:37:43;;;;;;;0.60;0.60;;;-0.90;99.90;;;;;;5245073;28;20359;-76
2022/03/06 05:40:15;;;;;;;1.03;1.03;;;-1.00;99.90;;;;;;5243560;28;20237;-75
2022/03/06 05:42:52;;;;;;;1.10;1.10;;;-1.00;99.90;;;;;;5231810;28;20043;-76
2022/03/06 05:45:32;;;;;;;0.50;0.50;;;-1.00;99.90;;;;;;5245280;28;20040;-75
2022/03/06 05:48:08;;;;;;;2.57;2.43;;;-0.90;99.90;;;;;;5252237;28;20040;-76
2022/03/06 05:50:39;;;;;;;0.55;0.55;;;-0.80;99.90;;;;;;5249356;28;20039;-76
2022/03/06 05:53:11;;;;;;;0.77;0.77;;;-0.80;99.90;;;;;;5240309;28;20044;-76
2022/03/06 05:55:44;;;;;;;0.70;0.70;;;-0.80;99.90;;;;;;5232074;28;20029;-76
2022/03/06 05:58:15;;;;;;;0.83;0.83;;;-0.80;99.90;;;;;;5253124;28;20040;-75
2022/03/06 06:00:46;;;;;;;0.73;0.73;;;-0.70;99.90;;;;;;5244897;28;20054;-75
2022/03/06 06:03:18;;;;;;;0.70;0.70;;;-0.60;99.90;;;;;;5240417;28;20502;-76
2022/03/06 06:05:50;;;;;;;0.80;0.80;;;-0.70;99.90;;;;;;5248693;28;20048;-78
2022/03/06 06:08:21;;;;;;;0.40;0.40;;;-0.60;99.90;;;;;;5252852;28;20464;-77
2022/03/06 06:10:52;;;;;;;0.50;0.50;;;-0.50;99.90;;;;;;5243025;28;20052;-77
2022/03/06 06:13:27;;;;;;;0.55;0.55;;;-0.40;99.90;;;;;;5252021;28;20038;-77
2022/03/06 06:16:01;;;;;;;0.90;0.90;;;-0.40;99.90;;;;;;5219303;28;20058;-79
2022/03/06 06:18:33;;;;;;;0.50;0.50;;;-0.30;99.90;;;;;;5224941;28;20494;-75
2022/03/06 06:21:06;;;;;;;0.47;0.47;;;-0.20;99.90;;;;;;5228669;28;20036;-76
2022/03/06 06:23:39;;;;;;;0.52;0.52;;;-0.20;99.90;;;;;;5233506;28;20059;-76
2022/03/06 06:26:16;;;;;;;0.45;0.45;;;-0.10;99.90;;;;;;5224997;28;20050;-76
2022/03/06 06:28:52;;;;;;;0.50;0.50;;;0.00;99.90;;;;;;5244592;28;20054;-78
2022/03/06 06:31:25;;;;;;;1.08;1.08;;;0.10;99.90;;;;;;5241080;28;20356;-75
2022/03/06 06:33:59;;;;;;;3.42;3.22;;;0.10;99.90;;;;;;5233974;28;20052;-75
2022/03/06 06:36:31;;;;;;;0.50;0.50;;;0.30;99.90;;;;;;5225281;28;20061;-75
2022/03/06 06:39:02;;;;;;;0.82;0.82;;;0.30;99.90;;;;;;5255194;28;20043;-75
2022/03/06 06:41:34;;;;;;;0.90;0.90;;;0.50;99.90;;;;;;5231260;28;20040;-75
2022/03/06 06:44:06;;;;;;;0.55;0.55;;;0.50;99.90;;;;;;5245419;28;20032;-77
2022/03/06 06:46:39;;;;;;;3.78;3.47;;;0.50;99.90;;;;;;5242309;28;20048;-76
2022/03/06 06:49:13;;;;;;;0.63;0.63;;;0.60;99.90;;;;;;5246902;28;20024;-77
2022/03/06 06:51:47;;;;;;;1.08;1.08;;;0.60;99.90;;;;;;5239412;28;20057;-75
2022/03/06 06:54:18;;;;;;;0.50;0.50;;;0.60;99.90;;;;;;5257181;28;20036;-76
2022/03/06 06:56:58;;;;;;;0.50;0.50;;;0.70;99.90;;;;;;5249009;28;20040;-79
2022/03/06 06:59:29;;;;;;;1.20;1.20;;;0.80;99.90;;;;;;5248582;28;20209;-79
2022/03/06 07:02:01;;;;;;;0.63;0.63;;;0.90;99.90;;;;;;5233759;28;20581;-79
2022/03/06 07:04:32;;;;;;;1.25;1.25;;;1.00;99.90;;;;;;5248445;28;20265;-76
2022/03/06 07:07:04;;;;;;;1.25;1.25;;;1.20;99.90;;;;;;5227915;28;20035;-78
2022/03/06 07:09:38;;;;;;;0.50;0.50;;;1.10;99.90;;;;;;5239845;28;20036;-79
2022/03/06 07:12:12;;;;;;;0.95;0.95;;;1.20;99.90;;;;;;5260149;28;20043;-80
2022/03/06 07:14:44;;;;;;;0.47;0.47;;;1.30;99.90;;;;;;5229043;28;20043;-80
2022/03/06 07:17:19;;;;;;;2.17;1.95;;;1.50;99.90;;;;;;5247745;28;20032;-79
2022/03/06 07:19:53;;;;;;;0.95;0.95;;;1.60;99.90;;;;;;5252916;28;20345;-78
2022/03/06 07:22:25;;;;;;;0.70;0.70;;;1.80;99.90;;;;;;5241756;28;20025;-80
2022/03/06 07:24:56;;;;;;;0.82;0.82;;;2.00;99.90;;;;;;5237759;28;20047;-76
2022/03/06 07:27:30;;;;;;;0.68;0.68;;;1.90;99.90;;;;;;5239778;28;20028;-78
2022/03/06 07:30:02;;;;;;;1.23;1.23;;;1.80;99.90;;;;;;5255380;28;20521;-79
2022/03/06 07:32:52;;;;;;;1.15;1.15;;;2.10;99.90;;;;;;5218927;28;20040;-78
2022/03/06 07:35:34;;;;;;;0.60;0.60;;;2.60;99.90;;;;;;5256556;28;20500;-78
2022/03/06 07:38:08;;;;;;;0.55;0.55;;;2.70;99.90;;;;;;5246942;28;20034;-79
2022/03/06 07:40:40;;;;;;;1.05;1.05;;;3.10;99.90;;;;;;5232444;28;20056;-78
2022/03/06 07:43:12;;;;;;;0.60;0.60;;;3.00;99.90;;;;;;5256466;28;20032;-80
2022/03/06 07:45:44;;;;;;;0.35;0.35;;;2.80;99.90;;;;;;5266858;28;20024;-80
2022/03/06 07:48:16;;;;;;;0.80;0.80;;;3.00;99.90;;;;;;5271926;28;20053;-79
2022/03/06 07:50:47;;;;;;;0.68;0.68;;;3.40;99.90;;;;;;5267530;28;20057;-78
2022/03/06 07:53:19;;;;;;;1.20;1.20;;;3.50;99.90;;;;;;5235649;28;20036;-80
2022/03/06 07:55:51;;;;;;;0.55;0.55;;;3.00;99.90;;;;;;5268063;28;20032;-78
2022/03/06 07:58:22;;;;;;;0.70;0.70;;;3.00;99.90;;;;;;5251863;28;20035;-80
2022/03/06 08:00:54;;;;;;;0.90;0.90;;;3.40;99.90;;;;;;5251385;28;20046;-79
2022/03/06 08:03:25;;;;;;;1.13;1.13;;;3.40;99.90;;;;;;5270670;28;20035;-79
2022/03/06 08:05:57;;;;;;;0.77;0.77;;;3.00;99.90;;;;;;5254246;28;20098;-79
2022/03/06 08:08:28;;;;;;;1.05;1.05;;;3.00;99.90;;;;;;5228704;28;20039;-80
2022/03/06 08:11:00;;;;;;;1.55;1.48;;;2.90;99.90;;;;;;5235222;28;20045;-80
2022/03/06 08:13:31;;;;;;;0.60;0.60;;;3.50;99.90;;;;;;5230929;28;20035;-79
2022/03/06 08:16:03;;;;;;;1.10;1.10;;;3.80;99.90;;;;;;5260975;28;20102;-79
2022/03/06 08:18:37;;;;;;;2.28;2.15;;;4.40;99.90;;;;;;5247111;28;20021;-79
2022/03/06 08:21:08;;;;;;;0.80;0.80;;;4.50;99.90;;;;;;5263341;28;20016;-80
2022/03/06 08:23:40;;;;;;;2.05;1.95;;;4.40;99.90;;;;;;5232390;28;20465;-81
2022/03/06 08:26:17;;;;;;;0.93;0.93;;;4.70;99.90;;;;;;5269035;28;20432;-82
2022/03/06 08:28:53;;;;;;;0.60;0.60;;;5.40;99.90;;;;;;5251052;28;20034;-78
2022/03/06 08:31:25;;;;;;;0.93;0.93;;;5.20;99.90;;;;;;5248773;28;20074;-80
2022/03/06 08:33:57;;;;;;;1.25;1.15;;;4.90;99.90;;;;;;5259006;28;20543;-81
2022/03/06 08:36:28;;;;;;;0.60;0.60;;;5.30;99.90;;;;;;5251772;28;20371;-82
2022/03/06 08:39:00;;;;;;;0.50;0.50;;;3.70;99.90;;;;;;5262516;28;20625;-79
2022/03/06 08:41:31;;;;;;;1.17;1.17;;;3.90;99.90;;;;;;5258363;28;20038;-77
2022/03/06 08:44:03;;;;;;;1.10;1.10;;;3.80;99.90;;;;;;5237348;28;20503;-80
2022/03/06 08:46:38;;;;;;;0.47;0.47;;;3.70;99.90;;;;;;5234126;28;20663;-81
2022/03/06 08:49:12;;;;;;;0.75;0.75;;;3.90;99.90;;;;;;5247147;28;20053;-81
2022/03/06 08:51:43;;;;;;;0.95;0.95;;;4.40;99.90;;;;;;5268807;28;20576;-82
2022/03/06 08:54:17;;;;;;;1.35;1.08;;;4.30;99.90;;;;;;5240160;28;20238;-80
2022/03/06 08:56:55;;;;;;;0.80;0.80;;;4.70;99.90;;;;;;5243610;28;20263;-77
2022/03/06 08:59:26;;;;;;;0.85;0.85;;;4.80;99.90;;;;;;5265900;28;20032;-81
2022/03/06 09:01:58;;;;;;;1.33;1.33;;;4.70;99.90;;;;;;5261406;28;20105;-80
2022/03/06 09:04:35;;;;;;;1.13;1.13;;;4.80;99.90;;;;;;5241531;28;20060;-81
2022/03/06 09:07:11;;;;;;;0.70;0.70;;;4.80;99.90;;;;;;5264445;28;20028;-81
2022/03/06 09:09:45;;;;;;;1.10;1.10;;;4.70;99.90;;;;;;5248689;28;20048;-81
2022/03/06 09:12:22;;;;;;;0.77;0.77;;;4.40;99.90;;;;;;5251993;28;20033;-81
2022/03/06 09:14:54;;;;;;;3.40;3.20;;;4.30;99.90;;;;;;5239699;28;20044;-80
2022/03/06 09:17:26;;;;;;;0.65;0.65;;;4.90;99.90;;;;;;5260758;28;20024;-81
2022/03/06 09:20:00;;;;;;;0.70;0.70;;;5.20;99.90;;;;;;5259382;28;20023;-81
2022/03/06 09:22:34;;;;;;;1.77;1.52;;;5.30;99.90;;;;;;5241629;28;20348;-80
2022/03/06 09:25:09;;;;;;;1.02;1.02;;;4.50;99.90;;;;;;5243695;28;20252;-79
2022/03/06 09:27:46;;;;;;;;;;;4.90;99.90;;;;;;5260162;28;20036;-80
2022/03/06 09:30:20;;;;;;;0.90;0.90;;;5.40;99.90;;;;;;5247628;28;20137;-80
2022/03/06 09:32:53;;;;;;;1.15;1.15;;;5.90;99.90;;;;;;5235495;28;20045;-82
2022/03/06 09:35:31;;;;;;;0.70;0.70;;;5.80;99.90;;;;;;5240805;28;20036;-81
2022/03/06 09:38:07;;;;;;;1.50;1.42;;;6.10;99.90;;;;;;5248849;28;20032;-80
2022/03/06 09:40:43;;;;;;;1.20;1.20;;;5.80;99.90;;;;;;5238256;28;20042;-81
2022/03/06 09:43:18;;;;;;;2.20;2.00;;;6.30;99.90;;;;;;5240917;28;20036;-79
2022/03/06 09:45:59;;;;;;;1.45;1.45;;;4.50;99.90;;;;;;5246754;28;20532;-80
2022/03/06 09:48:33;;;;;;;1.60;1.50;;;4.70;99.90;;;;;;5247566;28;20043;-80
2022/03/06 09:51:07;;;;;;;1.40;1.40;;;5.50;99.90;;;;;;5251411;28;20024;-81
2022/03/06 09:53:42;;;;;;;0.98;0.98;;;5.00;99.90;;;;;;5239945;28;20032;-80
2022/03/06 09:56:14;;;;;;;0.90;0.90;;;5.70;99.90;;;;;;5257643;28;20050;-79
2022/03/06 09:58:48;;;;;;;1.00;1.00;;;5.70;99.90;;;;;;5243128;28;20032;-80
2022/03/06 10:01:22;;;;;;;1.05;1.05;;;6.30;99.90;;;;;;5232327;28;20036;-80
2022/03/06 10:03:54;;;;;;;1.35;1.35;;;6.90;99.90;;;;;;5259032;28;20040;-79
2022/03/06 10:06:26;;;;;;;0.93;0.93;;;6.70;99.90;;;;;;5235215;28;20063;-80
2022/03/06 10:09:07;;;;;;;1.05;1.05;;;6.90;99.90;;;;;;5243165;28;20385;-82
2022/03/06 10:11:44;;;;;;;2.53;2.33;;;6.50;99.90;;;;;;5258050;28;20043;-81
2022/03/06 10:14:42;;;;;;;0.90;0.90;;;5.80;99.90;;;;;;5243134;28;20334;-81
2022/03/06 10:17:17;;;;;;;1.65;1.60;;;6.20;99.90;;;;;;5245952;28;20389;-82
2022/03/06 10:20:01;;;;;;;1.13;1.13;;;7.20;99.90;;;;;;5238085;28;20617;-80
2022/03/06 10:22:38;;;;;;;0.98;0.98;;;6.20;99.90;;;;;;5251228;28;20028;-81
2022/03/06 10:25:19;;;;;;;1.15;1.15;;;6.30;99.90;;;;;;5246847;28;20393;-79
2022/03/06 10:27:57;;;;;;;1.60;1.52;;;5.70;99.90;;;;;;5245711;28;20535;-81
2022/03/06 10:30:43;;;;;;;1.55;1.55;;;6.80;99.90;;;;;;5246355;28;20040;-80
2022/03/06 10:33:20;;;;;;;0.80;0.80;;;7.30;99.90;;;;;;5266365;28;20039;-80
2022/03/06 10:35:58;;;;;;;0.75;0.75;;;6.30;99.90;;;;;;5240082;28;20568;-80
2022/03/06 10:38:32;;;;;;;1.30;1.30;;;6.30;99.90;;;;;;5258804;28;20054;-78
2022/03/06 10:41:17;;;;;;;;;;;6.40;99.90;;;;;;5227004;28;20044;-77
2022/03/06 10:43:52;;;;;;;0.67;0.67;;;6.50;99.90;;;;;;5240336;28;19927;-81
2022/03/06 10:46:28;;;;;;;1.00;1.00;;;6.00;99.90;;;;;;5226499;28;20047;-78
2022/03/06 10:49:10;;;;;;;2.65;2.50;;;5.10;99.90;;;;;;5233960;28;20036;-81
2022/03/06 10:51:52;;;;;;;0.90;0.90;;;4.40;99.90;;;;;;5235940;28;20040;-79
2022/03/06 10:54:24;;;;;;;0.47;0.47;;;4.00;99.90;;;;;;5246393;28;20344;-79
2022/03/06 10:57:12;;;;;;;0.60;0.60;;;4.20;99.90;;;;;;5244073;28;20097;-80
2022/03/06 10:59:48;;;;;;;0.60;0.60;;;4.90;99.90;;;;;;5243541;28;20032;-79
2022/03/06 11:02:27;;;;;;;1.13;1.13;;;4.80;99.90;;;;;;5249381;28;20550;-80
2022/03/06 11:05:05;;;;;;;0.70;0.70;;;4.30;99.90;;;;;;5224434;28;20060;-81
2022/03/06 11:07:36;;;;;;;1.08;1.08;;;5.00;99.90;;;;;;5242583;28;20504;-78
2022/03/06 11:10:12;;;;;;;0.80;0.80;;;6.90;99.90;;;;;;5239368;28;20052;-80
2022/03/06 11:12:47;;;;;;;0.93;0.93;;;7.70;99.90;;;;;;5255951;28;20036;-79
2022/03/06 11:15:24;;;;;;;1.10;1.10;;;7.10;99.90;;;;;;5239647;28;20380;-78
2022/03/06 11:18:01;;;;;;;0.60;0.60;;;6.40;99.90;;;;;;5247460;28;20043;-79
2022/03/06 11:20:35;;;;;;;0.90;0.90;;;4.70;99.90;;;;;;5240305;28;20049;-79
2022/03/06 11:23:23;;;;;;;0.75;0.75;;;3.80;99.90;;;;;;5250989;28;20042;-79
2022/03/06 11:26:09;;;;;;;1.30;1.20;;;3.70;99.90;;;;;;5257543;28;20029;-81
2022/03/06 11:29:34;;;;;;;0.50;0.50;;;3.50;99.90;;;;;;5258115;28;20459;-80
2022/03/06 11:32:07;;;;;;;0.55;0.55;;;3.30;99.90;;;;;;5181027;28;20049;-77
2022/03/06 11:34:40;;;;;;;1.42;1.42;;;3.70;99.90;;;;;;5184332;28;20052;-80
2022/03/06 11:37:16;;;;;;;0.95;0.95;;;4.10;99.90;;;;;;5184933;28;20443;-80
2022/03/06 11:39:52;;;;;;;0.70;0.70;;;4.40;99.90;;;;;;5160979;28;20552;-81
2022/03/06 11:42:50;;;;;;;0.75;0.75;;;4.20;99.90;;;;;;5180376;28;20053;-80
2022/03/06 11:46:03;;;;;;;1.02;1.02;;;4.10;99.90;;;;;;5168119;28;20036;-81
2022/03/06 11:48:34;;;;;;;0.60;0.60;;;6.00;99.90;;;;;;5178260;28;20061;-81
2022/03/06 11:51:17;;;;;;;1.10;1.10;;;7.40;99.90;;;;;;5183583;28;20045;-79
2022/03/06 11:53:54;;;;;;;1.13;1.13;;;6.70;99.90;;;;;;5164402;28;20045;-79
2022/03/06 11:56:46;;;;;;;0.65;0.65;;;5.20;99.90;;;;;;5167410;28;20062;-78
2022/03/06 11:59:37;;;;;;;0.60;0.60;;;4.50;99.90;;;;;;5190076;28;20086;-80
2022/03/06 12:02:14;;;;;;;0.80;0.80;;;4.00;99.90;;;;;;5164471;28;20057;-80
2022/03/06 12:04:53;;;;;;;0.85;0.85;;;4.10;99.90;;;;;;5154152;28;20545;-80
2022/03/06 12:07:34;;;;;;;1.00;1.00;;;4.10;99.90;;;;;;5215384;28;20040;-79
2022/03/06 12:10:16;;;;;;;1.00;1.00;;;4.30;99.90;;;;;;5243816;28;20059;-77
2022/03/06 12:12:59;;;;;;;1.42;1.35;;;4.00;99.90;;;;;;5258023;28;20024;-78
2022/03/06 12:15:32;;;;;;;1.75;1.65;;;3.90;99.90;;;;;;5250610;28;20032;-79
2022/03/06 12:18:20;;;;;;;0.55;0.55;;;3.80;99.90;;;;;;5247124;28;20055;-79
2022/03/06 12:20:52;;;;;;;0.73;0.73;;;4.00;99.90;;;;;;5229438;28;20246;-78
2022/03/06 12:23:30;;;;;;;0.50;0.50;;;3.80;99.90;;;;;;5263992;28;20028;-80
2022/03/06 12:26:02;;;;;;;0.82;0.82;;;4.10;99.90;;;;;;5246094;28;20048;-79
2022/03/06 12:28:43;;;;;;;0.73;0.73;;;4.00;99.90;;;;;;5248578;28;20062;-77
2022/03/06 12:31:37;;;;;;;1.63;1.52;;;4.10;99.90;;;;;;5246244;28;20020;-79
2022/03/06 12:34:38;;;;;;;0.60;0.60;;;4.20;99.90;;;;;;5246960;28;20044;-79
2022/03/06 12:37:09;;;;;;;1.10;1.10;;;3.70;99.90;;;;;;5232281;28;20387;-79
2022/03/06 12:39:44;;;;;;;1.45;1.45;;;3.60;99.90;;;;;;5253648;28;20035;-79
2022/03/06 12:42:25;;;;;;;;;;;3.60;99.90;;;;;;5242196;28;20048;-80
2022/03/06 12:45:07;;;;;;;1.15;1.15;;;3.30;99.90;;;;;;5259598;28;19919;-81
2022/03/06 12:47:44;;;;;;;0.60;0.60;;;3.60;99.90;;;;;;5238828;28;20040;-79
2022/03/06 12:50:19;;;;;;;0.85;0.85;;;3.70;99.90;;;;;;5227606;28;20032;-78
2022/03/06 12:52:59;;;;;;;0.73;0.73;;;4.00;99.90;;;;;;5276624;28;20028;-79
2022/03/06 12:55:30;;;;;;;1.65;1.58;;;4.20;99.90;;;;;;5261722;28;20036;-78
2022/03/06 12:58:02;;;;;;;1.10;1.10;;;4.30;99.90;;;;;;5246172;28;20247;-81
2022/03/06 13:00:35;;;;;;;1.10;1.10;;;3.80;99.90;;;;;;5242493;28;20479;-78
2022/03/06 13:03:08;;;;;;;1.27;1.27;;;3.80;99.90;;;;;;5238970;28;20036;-79
2022/03/06 13:05:39;;;;;;;0.70;0.70;;;3.60;99.90;;;;;;5213052;28;20052;-80
2022/03/06 13:08:11;;;;;;;0.52;0.52;;;3.60;99.90;;;;;;5241021;28;20042;-80
2022/03/06 13:10:42;;;;;;;0.63;0.63;;;3.70;99.90;;;;;;5247101;28;20030;-79
2022/03/06 13:13:15;;;;;;;0.90;0.90;;;3.80;99.90;;;;;;5265265;28;20039;-78
2022/03/06 13:15:52;;;;;;;3.03;2.67;;;3.90;99.90;;;;;;5230580;28;20382;-80
2022/03/06 13:18:41;;;;;;;0.63;0.63;;;3.80;99.90;;;;;;5245828;28;20040;-79
2022/03/06 13:21:20;;;;;;;0.60;0.60;;;3.60;99.90;;;;;;5255910;28;20051;-79
2022/03/06 13:24:06;;;;;;;0.70;0.70;;;3.60;99.90;;;;;;5249941;28;20042;-79
2022/03/06 13:26:40;;;;;;;0.82;0.82;;;3.50;99.90;;;;;;5249063;28;20047;-79
2022/03/06 13:29:15;;;;;;;1.65;1.55;;;3.60;99.90;;;;;;5259096;28;20032;-76
2022/03/06 13:31:47;;;;;;;2.05;1.95;;;3.80;99.90;;;;;;5243079;28;20050;-80
2022/03/06 13:34:21;;;;;;;1.52;1.42;;;4.00;99.90;;;;;;5238689;28;20024;-78
2022/03/06 13:36:52;;;;;;;0.52;0.52;;;4.20;99.90;;;;;;5259964;28;20474;-79